Time;durP1;ratioP1;P1;durP2;ratioP2;P2;SDS_P1;SDS_P2;PMS_P1;PMS_P2;Temp;Humidity;BMP_temperature;BMP_pressure;BME280_temperature;BME280_humidity;BME280_pressure;Samples;Min_cycle;Max_cycle;Signal;HPM_P1;HPM_P2
2021/01/08 00:00:28;;;;;;;5.38;5.00;;;-0.50;99.90;;;;;;5087819;27;20274;-77
2021/01/08 00:02:55;;;;;;;6.57;6.07;;;-0.50;99.90;;;;;;5074453;28;20498;-76
2021/01/08 00:05:22;;;;;;;5.38;4.97;;;-0.50;99.90;;;;;;5088949;27;20241;-77
2021/01/08 00:07:48;;;;;;;5.68;5.22;;;-0.50;99.90;;;;;;5084913;28;20233;-76
2021/01/08 00:10:15;;;;;;;5.85;5.40;;;-0.50;99.90;;;;;;5078515;28;20779;-76
2021/01/08 00:12:41;;;;;;;5.90;5.47;;;-0.50;99.90;;;;;;5071388;28;20699;-76
2021/01/08 00:15:08;;;;;;;5.78;5.38;;;-0.50;99.90;;;;;;5066644;28;20222;-76
2021/01/08 00:17:36;;;;;;;6.00;5.60;;;-0.50;99.90;;;;;;5070044;28;20270;-76
2021/01/08 00:20:03;;;;;;;6.47;5.95;;;-0.50;99.90;;;;;;5062867;28;20221;-76
2021/01/08 00:22:29;;;;;;;6.03;5.60;;;-0.60;99.90;;;;;;5067318;28;20217;-76
2021/01/08 00:24:56;;;;;;;5.53;5.15;;;-0.70;99.90;;;;;;5061704;28;20650;-76
2021/01/08 00:27:23;;;;;;;5.30;4.90;;;-0.80;99.90;;;;;;5065670;28;20241;-76
2021/01/08 00:29:50;;;;;;;6.25;5.75;;;-0.90;99.90;;;;;;5060241;28;20746;-77
2021/01/08 00:32:17;;;;;;;6.05;5.65;;;-0.90;99.90;;;;;;5063804;28;20226;-76
2021/01/08 00:34:44;;;;;;;6.60;6.10;;;-0.90;99.90;;;;;;5062799;28;20222;-77
2021/01/08 00:37:11;;;;;;;6.53;6.03;;;-0.90;99.90;;;;;;5062481;28;20225;-76
2021/01/08 00:39:39;;;;;;;6.18;5.78;;;-0.90;99.90;;;;;;5066038;28;20231;-77
2021/01/08 00:42:06;;;;;;;5.43;5.03;;;-0.90;99.90;;;;;;5062099;28;20234;-76
2021/01/08 00:44:33;;;;;;;5.68;5.25;;;-0.80;99.90;;;;;;5067062;28;20218;-76
2021/01/08 00:47:00;;;;;;;5.65;5.25;;;-0.70;99.90;;;;;;5061327;28;20332;-75
2021/01/08 00:49:27;;;;;;;5.93;5.53;;;-0.70;99.90;;;;;;5064761;28;20226;-76
2021/01/08 00:51:54;;;;;;;5.57;5.18;;;-0.70;99.90;;;;;;5059706;28;20642;-76
2021/01/08 00:54:21;;;;;;;4.95;4.65;;;-0.70;99.90;;;;;;5060241;28;20210;-77
2021/01/08 00:56:47;;;;;;;4.70;4.40;;;-0.70;99.90;;;;;;5063936;28;20544;-76
2021/01/08 00:59:14;;;;;;;6.03;5.32;;;-0.70;99.90;;;;;;5077896;28;20226;-76
2021/01/08 01:01:41;;;;;;;5.35;5.05;;;-0.70;99.90;;;;;;5064658;28;20274;-76
2021/01/08 01:04:08;;;;;;;5.13;4.82;;;-0.70;99.90;;;;;;5062473;28;20611;-76
2021/01/08 01:06:35;;;;;;;5.45;5.05;;;-0.80;99.90;;;;;;5064045;28;20218;-77
2021/01/08 01:09:03;;;;;;;5.18;4.88;;;-0.80;99.90;;;;;;5083186;28;20598;-76
2021/01/08 01:11:30;;;;;;;6.00;5.60;;;-0.80;99.90;;;;;;5074875;27;20629;-76
2021/01/08 01:13:59;;;;;;;5.53;5.13;;;-0.90;99.90;;;;;;5068548;28;20228;-76
2021/01/08 01:16:27;;;;;;;4.45;4.15;;;-0.90;99.90;;;;;;5065828;28;20226;-76
2021/01/08 01:18:55;;;;;;;5.43;5.03;;;-1.00;99.90;;;;;;5057428;28;20792;-76
2021/01/08 01:21:22;;;;;;;5.55;5.15;;;-1.00;99.90;;;;;;5058147;28;20222;-76
2021/01/08 01:23:49;;;;;;;5.25;4.95;;;-1.00;99.90;;;;;;5063027;28;20218;-77
2021/01/08 01:26:16;;;;;;;4.82;4.53;;;-1.00;99.90;;;;;;5086346;28;20210;-76
2021/01/08 01:28:43;;;;;;;5.13;4.82;;;-1.00;99.90;;;;;;5070711;28;20230;-76
2021/01/08 01:31:09;;;;;;;5.45;5.05;;;-1.00;99.90;;;;;;5064396;28;20723;-76
2021/01/08 01:33:36;;;;;;;5.05;4.75;;;-1.00;99.90;;;;;;5060556;28;20228;-76
2021/01/08 01:36:06;;;;;;;5.07;4.75;;;-0.90;99.90;;;;;;5061078;28;20225;-76
2021/01/08 01:38:32;;;;;;;4.70;4.35;;;-1.00;99.90;;;;;;5065496;28;20214;-76
2021/01/08 01:40:59;;;;;;;5.13;4.82;;;-1.00;99.90;;;;;;5061832;28;20213;-76
2021/01/08 01:43:27;;;;;;;5.10;4.78;;;-1.00;99.90;;;;;;5058829;28;20700;-76
2021/01/08 01:45:53;;;;;;;5.38;4.97;;;-1.00;99.90;;;;;;5057662;28;20287;-75
2021/01/08 01:48:20;;;;;;;5.40;4.97;;;-1.00;99.90;;;;;;5060659;28;20226;-77
2021/01/08 01:50:47;;;;;;;5.28;4.90;;;-1.10;99.90;;;;;;5066014;28;20777;-76
2021/01/08 01:53:14;;;;;;;5.38;5.07;;;-1.20;99.90;;;;;;5081557;28;20667;-75
2021/01/08 01:55:41;;;;;;;4.70;4.40;;;-1.30;99.90;;;;;;5072564;28;20221;-77
2021/01/08 01:58:07;;;;;;;4.95;4.65;;;-1.30;99.90;;;;;;5085594;28;20293;-76
2021/01/08 02:00:35;;;;;;;5.82;5.32;;;-1.30;99.90;;;;;;5069668;28;20299;-76
2021/01/08 02:03:07;;;;;;;5.20;4.80;;;-1.30;99.90;;;;;;5063868;28;20265;-76
2021/01/08 02:05:35;;;;;;;4.75;4.45;;;-1.30;99.90;;;;;;5063932;28;20214;-76
2021/01/08 02:08:05;;;;;;;5.63;5.13;;;-1.30;99.90;;;;;;5066404;28;20248;-76
2021/01/08 02:10:36;;;;;;;4.88;4.57;;;-1.30;99.90;;;;;;5063647;28;20662;-76
2021/01/08 02:13:05;;;;;;;5.07;4.70;;;-1.30;99.90;;;;;;5062376;28;20244;-76
2021/01/08 02:15:32;;;;;;;5.55;5.05;;;-1.30;99.90;;;;;;5065878;28;20222;-76
2021/01/08 02:18:01;;;;;;;5.07;4.78;;;-1.40;99.90;;;;;;5071141;28;20245;-77
2021/01/08 02:20:28;;;;;;;5.63;5.22;;;-1.40;99.90;;;;;;5084298;28;20239;-76
2021/01/08 02:23:02;;;;;;;5.22;4.93;;;-1.40;99.90;;;;;;5078943;28;20222;-76
2021/01/08 02:25:32;;;;;;;5.10;4.80;;;-1.40;99.90;;;;;;5081466;28;20597;-76
2021/01/08 02:28:18;;;;;;;5.15;4.85;;;-1.40;99.90;;;;;;5063902;28;20635;-76
2021/01/08 02:30:45;;;;;;;5.43;5.03;;;-1.40;99.90;;;;;;5067829;28;20274;-76
2021/01/08 02:33:13;;;;;;;5.38;4.97;;;-1.40;99.90;;;;;;5062863;28;20226;-76
2021/01/08 02:35:40;;;;;;;5.60;5.10;;;-1.50;99.90;;;;;;5080774;28;20222;-76
2021/01/08 02:38:07;;;;;;;5.28;4.95;;;-1.50;99.90;;;;;;5085557;28;20226;-76
2021/01/08 02:40:35;;;;;;;5.65;5.15;;;-1.50;99.90;;;;;;5089765;28;20217;-76
2021/01/08 02:43:03;;;;;;;5.75;5.35;;;-1.60;99.90;;;;;;5086322;28;20217;-76
2021/01/08 02:45:30;;;;;;;5.65;5.25;;;-1.60;99.90;;;;;;5095751;28;20224;-76
2021/01/08 02:47:57;;;;;;;5.57;5.07;;;-1.60;99.90;;;;;;5075223;28;20230;-76
2021/01/08 02:50:24;;;;;;;5.18;4.78;;;-1.60;99.90;;;;;;5078694;28;20252;-77
2021/01/08 02:52:54;;;;;;;6.07;5.60;;;-1.60;99.90;;;;;;5081404;28;20223;-76
2021/01/08 02:55:24;;;;;;;6.07;5.57;;;-1.50;99.90;;;;;;5075613;28;20556;-76
2021/01/08 02:57:52;;;;;;;5.35;4.95;;;-1.50;99.90;;;;;;5079657;28;20222;-75
2021/01/08 03:00:19;;;;;;;5.85;5.47;;;-1.50;99.90;;;;;;5060430;28;20226;-76
2021/01/08 03:02:46;;;;;;;5.03;4.63;;;-1.50;99.90;;;;;;5067186;28;20735;-76
2021/01/08 03:05:13;;;;;;;5.15;4.85;;;-1.50;99.90;;;;;;5072829;28;20839;-76
2021/01/08 03:07:41;;;;;;;5.00;4.70;;;-1.50;99.90;;;;;;5085134;28;20316;-76
2021/01/08 03:10:09;;;;;;;5.97;5.57;;;-1.60;99.90;;;;;;5088480;28;20975;-76
2021/01/08 03:12:36;;;;;;;6.05;5.55;;;-1.70;99.90;;;;;;5088416;28;20226;-76
2021/01/08 03:15:09;;;;;;;5.20;4.80;;;-1.70;99.90;;;;;;5086041;28;20304;-76
2021/01/08 03:17:35;;;;;;;5.18;4.88;;;-1.70;99.90;;;;;;5079576;28;20352;-76
2021/01/08 03:20:02;;;;;;;5.75;5.35;;;-1.80;99.90;;;;;;5080693;28;20716;-76
2021/01/08 03:22:29;;;;;;;5.93;5.53;;;-1.80;99.90;;;;;;5079431;27;20225;-75
2021/01/08 03:24:55;;;;;;;5.68;5.28;;;-1.90;99.90;;;;;;5058069;28;20222;-76
2021/01/08 03:27:22;;;;;;;5.63;5.20;;;-1.90;99.90;;;;;;5067861;28;20218;-76
2021/01/08 03:29:48;;;;;;;5.10;4.80;;;-1.90;99.90;;;;;;5068290;28;20217;-76
2021/01/08 03:32:16;;;;;;;5.18;4.88;;;-1.90;99.90;;;;;;5083673;27;20217;-76
2021/01/08 03:34:42;;;;;;;5.75;5.35;;;-2.00;99.90;;;;;;5083280;27;20535;-76
2021/01/08 03:37:09;;;;;;;6.60;6.10;;;-2.00;99.90;;;;;;5060748;28;20233;-76
2021/01/08 03:39:35;;;;;;;11.50;5.80;;;-2.00;99.90;;;;;;5083249;28;20590;-76
2021/01/08 03:42:02;;;;;;;5.97;5.57;;;-2.10;99.90;;;;;;5066524;28;20226;-76
2021/01/08 03:44:29;;;;;;;6.45;5.95;;;-2.00;99.90;;;;;;5096770;27;20216;-76
2021/01/08 03:46:55;;;;;;;6.10;5.70;;;-2.00;99.90;;;;;;5087113;27;20233;-76
2021/01/08 03:49:23;;;;;;;6.05;5.55;;;-2.00;99.90;;;;;;5064655;28;20222;-76
2021/01/08 03:51:49;;;;;;;5.60;5.20;;;-2.00;99.90;;;;;;5059147;28;20291;-76
2021/01/08 03:54:16;;;;;;;6.47;5.85;;;-1.90;99.90;;;;;;5059416;28;20227;-76
2021/01/08 03:56:42;;;;;;;5.43;5.03;;;-1.90;99.90;;;;;;5064564;28;20253;-76
2021/01/08 03:59:09;;;;;;;5.32;4.97;;;-2.00;99.90;;;;;;5080003;28;20869;-76
2021/01/08 04:01:35;;;;;;;5.80;5.30;;;-2.00;99.90;;;;;;5094542;28;20232;-77
2021/01/08 04:04:02;;;;;;;5.55;5.13;;;-1.90;99.90;;;;;;5080769;28;20222;-76
2021/01/08 04:06:29;;;;;;;6.07;5.68;;;-2.00;99.90;;;;;;5065098;28;20695;-76
2021/01/08 04:08:57;;;;;;;5.80;5.40;;;-2.10;99.90;;;;;;5063931;28;20237;-76
2021/01/08 04:11:23;;;;;;;5.55;5.15;;;-2.10;99.90;;;;;;5063311;28;20233;-76
2021/01/08 04:13:50;;;;;;;5.20;4.80;;;-2.10;99.90;;;;;;5079608;28;20240;-76
2021/01/08 04:16:16;;;;;;;5.05;4.65;;;-2.10;99.90;;;;;;5082774;28;20221;-75
2021/01/08 04:18:43;;;;;;;5.70;5.32;;;-2.20;99.90;;;;;;5085580;28;20221;-76
2021/01/08 04:21:09;;;;;;;5.47;5.07;;;-2.20;99.90;;;;;;5081906;28;20515;-76
2021/01/08 04:23:38;;;;;;;5.55;5.15;;;-2.20;99.90;;;;;;5081880;28;20221;-76
2021/01/08 04:26:06;;;;;;;4.85;4.55;;;-2.20;99.90;;;;;;5089060;28;20225;-76
2021/01/08 04:28:33;;;;;;;5.85;5.45;;;-2.10;99.90;;;;;;5083985;28;20304;-76
2021/01/08 04:31:00;;;;;;;5.50;5.10;;;-2.10;99.90;;;;;;5081404;28;20251;-76
2021/01/08 04:33:26;;;;;;;5.88;5.47;;;-2.10;99.90;;;;;;5090236;28;20651;-76
2021/01/08 04:35:53;;;;;;;5.70;5.30;;;-2.10;99.90;;;;;;5076061;28;20229;-75
2021/01/08 04:38:20;;;;;;;5.32;4.95;;;-2.00;99.90;;;;;;5079067;28;20217;-76
2021/01/08 04:40:49;;;;;;;5.15;4.85;;;-2.00;99.90;;;;;;5075288;28;20230;-76
2021/01/08 04:43:16;;;;;;;4.65;4.35;;;-2.10;99.90;;;;;;5072697;28;20214;-76
2021/01/08 04:45:42;;;;;;;5.53;5.13;;;-2.10;99.90;;;;;;5063943;28;20225;-76
2021/01/08 04:48:12;;;;;;;5.22;4.93;;;-2.10;99.90;;;;;;5064166;28;20229;-76
2021/01/08 04:50:38;;;;;;;5.07;4.68;;;-2.10;99.90;;;;;;5087124;27;20229;-76
2021/01/08 04:53:05;;;;;;;5.82;5.43;;;-2.10;99.90;;;;;;5094939;27;20231;-76
2021/01/08 04:55:31;;;;;;;5.55;5.22;;;-2.20;99.90;;;;;;5082630;27;20596;-76
2021/01/08 04:58:00;;;;;;;5.55;5.15;;;-2.20;99.90;;;;;;5090633;27;20824;-76
2021/01/08 05:00:27;;;;;;;4.78;4.47;;;-2.20;99.90;;;;;;5090314;27;20807;-76
2021/01/08 05:02:53;;;;;;;5.32;4.93;;;-2.30;99.90;;;;;;5056062;28;20759;-76
2021/01/08 05:05:22;;;;;;;5.40;5.00;;;-2.20;99.90;;;;;;5063555;28;20267;-76
2021/01/08 05:07:49;;;;;;;5.57;5.18;;;-2.30;99.90;;;;;;5058236;28;20221;-76
2021/01/08 05:10:15;;;;;;;6.93;6.32;;;-2.30;99.90;;;;;;5062949;28;20225;-75
2021/01/08 05:12:43;;;;;;;6.55;6.05;;;-2.30;99.90;;;;;;5064874;28;20222;-76
2021/01/08 05:15:13;;;;;;;6.20;5.70;;;-2.30;99.90;;;;;;5062915;28;20271;-76
2021/01/08 05:17:40;;;;;;;6.85;6.35;;;-2.30;99.90;;;;;;5063915;28;20602;-76
2021/01/08 05:20:08;;;;;;;6.07;5.63;;;-2.30;99.90;;;;;;5064975;28;20276;-76
2021/01/08 05:22:34;;;;;;;5.30;4.90;;;-2.40;99.90;;;;;;5069385;28;20776;-76
2021/01/08 05:25:04;;;;;;;5.93;5.53;;;-2.40;99.90;;;;;;5062973;28;20214;-76
2021/01/08 05:27:31;;;;;;;5.93;5.53;;;-2.50;99.90;;;;;;5080879;28;20286;-76
2021/01/08 05:30:14;;;;;;;5.35;5.05;;;-2.50;99.90;;;;;;5079615;28;20234;-77
2021/01/08 05:32:41;;;;;;;5.35;4.97;;;-2.60;99.90;;;;;;5095103;28;20224;-76
2021/01/08 05:35:08;;;;;;;5.75;5.35;;;-2.50;99.90;;;;;;5082844;28;20224;-75
2021/01/08 05:37:35;;;;;;;5.85;5.45;;;-2.50;99.90;;;;;;5079968;28;20218;-76
2021/01/08 05:40:02;;;;;;;6.50;6.00;;;-2.50;99.90;;;;;;5060185;28;20226;-76
2021/01/08 05:42:28;;;;;;;7.13;6.53;;;-2.60;99.90;;;;;;5061470;28;20674;-76
2021/01/08 05:44:55;;;;;;;6.93;6.43;;;-2.60;99.90;;;;;;5058700;28;20222;-76
2021/01/08 05:47:23;;;;;;;7.60;7.00;;;-2.60;99.90;;;;;;5062853;28;20267;-76
2021/01/08 05:49:50;;;;;;;6.63;6.03;;;-2.60;99.90;;;;;;5062973;28;20450;-76
2021/01/08 05:52:17;;;;;;;6.70;6.20;;;-2.60;99.90;;;;;;5060635;28;20221;-75
2021/01/08 05:54:44;;;;;;;6.30;5.90;;;-2.60;99.90;;;;;;5061908;28;20720;-76
2021/01/08 05:57:12;;;;;;;6.40;5.90;;;-2.60;99.90;;;;;;5055066;28;20218;-76
2021/01/08 05:59:40;;;;;;;5.75;5.35;;;-2.60;99.90;;;;;;5059212;28;20226;-76
2021/01/08 06:02:08;;;;;;;5.97;5.57;;;-2.60;99.90;;;;;;5055513;28;20312;-75
2021/01/08 06:04:40;;;;;;;5.38;5.00;;;-2.60;99.90;;;;;;5060714;28;20218;-76
2021/01/08 06:07:16;;;;;;;6.00;5.60;;;-2.60;99.90;;;;;;5057644;28;20237;-75
2021/01/08 06:09:44;;;;;;;5.70;5.20;;;-2.60;99.90;;;;;;5058763;28;20282;-77
2021/01/08 06:12:12;;;;;;;5.68;5.28;;;-2.60;99.90;;;;;;5064049;28;20290;-76
2021/01/08 06:14:39;;;;;;;5.63;5.30;;;-2.60;99.90;;;;;;5061038;28;20305;-76
2021/01/08 06:17:07;;;;;;;6.25;5.82;;;-2.60;99.90;;;;;;5064403;28;20229;-76
2021/01/08 06:19:34;;;;;;;5.05;4.75;;;-2.70;99.90;;;;;;5079903;28;20710;-76
2021/01/08 06:22:02;;;;;;;5.32;4.93;;;-2.70;99.90;;;;;;5086837;28;20228;-76
2021/01/08 06:24:29;;;;;;;5.53;5.22;;;-2.70;99.90;;;;;;5074172;27;20890;-77
2021/01/08 06:26:56;;;;;;;5.60;5.20;;;-2.80;99.90;;;;;;5077846;27;20222;-76
2021/01/08 06:29:24;;;;;;;5.45;5.05;;;-2.80;99.90;;;;;;5056695;28;20284;-77
2021/01/08 06:31:52;;;;;;;6.28;5.88;;;-2.80;99.90;;;;;;5057935;28;20256;-77
2021/01/08 06:34:23;;;;;;;5.25;4.88;;;-2.80;99.90;;;;;;5066347;28;20531;-77
2021/01/08 06:37:04;;;;;;;5.45;5.15;;;-2.80;99.90;;;;;;5064575;28;20217;-76
2021/01/08 06:39:35;;;;;;;5.78;5.40;;;-2.70;99.90;;;;;;5081292;28;20221;-75
2021/01/08 06:42:02;;;;;;;6.00;5.60;;;-2.70;99.90;;;;;;5058695;28;20210;-75
2021/01/08 06:44:30;;;;;;;6.97;6.47;;;-2.70;99.90;;;;;;5065627;28;20710;-75
2021/01/08 06:46:58;;;;;;;6.20;5.80;;;-2.70;99.90;;;;;;5066910;28;20344;-76
2021/01/08 06:49:25;;;;;;;5.78;5.38;;;-2.70;99.90;;;;;;5086126;27;20229;-75
2021/01/08 06:51:52;;;;;;;6.10;5.70;;;-2.70;99.90;;;;;;5086219;27;20489;-75
2021/01/08 06:54:19;;;;;;;5.43;5.03;;;-2.70;99.90;;;;;;5084649;27;20250;-75
2021/01/08 06:56:47;;;;;;;5.70;5.30;;;-2.70;99.90;;;;;;5085778;27;20225;-75
2021/01/08 06:59:16;;;;;;;4.90;4.60;;;-2.70;99.90;;;;;;5058109;28;20638;-76
2021/01/08 07:01:54;;;;;;;4.78;4.47;;;-2.70;99.90;;;;;;5063874;28;20233;-76
2021/01/08 07:04:25;;;;;;;5.80;5.50;;;-2.70;99.90;;;;;;5059565;28;20307;-75
2021/01/08 07:06:53;;;;;;;6.05;5.65;;;-2.70;99.90;;;;;;5058716;28;20241;-75
2021/01/08 07:09:21;;;;;;;5.22;4.85;;;-2.70;99.90;;;;;;5059749;28;20230;-75
2021/01/08 07:11:54;;;;;;;5.25;4.93;;;-2.70;99.90;;;;;;5083694;28;20225;-74
2021/01/08 07:14:23;;;;;;;5.80;5.40;;;-2.60;99.90;;;;;;5083118;28;20342;-75
2021/01/08 07:16:52;;;;;;;6.40;6.00;;;-2.60;99.90;;;;;;5083585;28;20225;-75
2021/01/08 07:19:21;;;;;;;5.95;5.55;;;-2.60;99.90;;;;;;5078589;28;20719;-74
2021/01/08 07:21:49;;;;;;;6.03;5.63;;;-2.60;99.90;;;;;;5080397;28;20236;-74
2021/01/08 07:24:18;;;;;;;5.35;5.05;;;-2.50;99.90;;;;;;5078510;28;20213;-75
2021/01/08 07:26:47;;;;;;;5.40;5.00;;;-2.50;99.90;;;;;;5083541;28;20240;-74
2021/01/08 07:29:14;;;;;;;5.65;5.25;;;-2.50;99.90;;;;;;5081484;28;20363;-74
2021/01/08 07:31:40;;;;;;;6.18;5.78;;;-2.50;99.90;;;;;;5090713;28;20477;-75
2021/01/08 07:34:09;;;;;;;5.93;5.53;;;-2.50;99.90;;;;;;5077837;28;20225;-74
2021/01/08 07:36:37;;;;;;;6.60;6.20;;;-2.50;99.90;;;;;;5059694;28;20711;-74
2021/01/08 07:39:06;;;;;;;37.45;25.08;;;-2.40;99.90;;;;;;5066311;28;20524;-74
2021/01/08 07:41:34;;;;;;;19.58;15.38;;;-2.40;99.90;;;;;;5063905;28;20219;-74
2021/01/08 07:44:03;;;;;;;17.55;14.73;;;-2.40;99.90;;;;;;5062943;28;20595;-75
2021/01/08 07:46:31;;;;;;;29.65;21.27;;;-2.40;99.90;;;;;;5080900;28;20217;-74
2021/01/08 07:49:00;;;;;;;21.65;15.90;;;-2.40;99.90;;;;;;5082305;28;20270;-74
2021/01/08 07:51:46;;;;;;;29.90;21.67;;;-2.40;99.90;;;;;;5078687;28;21658;-75
2021/01/08 07:54:13;;;;;;;21.60;16.33;;;-2.40;99.90;;;;;;5067127;27;20273;-72
2021/01/08 07:57:14;;;;;;;14.30;11.77;;;-2.30;99.90;;;;;;5061020;28;20222;-74
2021/01/08 07:59:41;;;;;;;12.80;10.77;;;-2.30;99.90;;;;;;5003788;28;20251;-75
2021/01/08 08:02:08;;;;;;;9.93;9.02;;;-2.30;99.90;;;;;;5002619;28;20220;-74
2021/01/08 08:04:37;;;;;;;10.30;9.15;;;-2.40;99.90;;;;;;5036043;28;20214;-76
2021/01/08 08:07:03;;;;;;;9.23;8.43;;;-2.40;99.90;;;;;;5075672;27;20231;-75
2021/01/08 08:09:30;;;;;;;7.57;7.05;;;-2.40;99.90;;;;;;5060468;28;20241;-75
2021/01/08 08:11:57;;;;;;;6.93;6.32;;;-2.30;99.90;;;;;;5061435;28;20252;-75
2021/01/08 08:14:23;;;;;;;7.60;7.00;;;-2.30;99.90;;;;;;5058851;28;20229;-75
2021/01/08 08:16:51;;;;;;;6.53;6.03;;;-2.30;99.90;;;;;;5062127;28;20226;-75
2021/01/08 08:19:18;;;;;;;7.03;6.45;;;-2.20;99.90;;;;;;5053985;28;20218;-76
2021/01/08 08:21:48;;;;;;;8.68;7.88;;;-2.20;99.90;;;;;;5062196;28;20271;-75
2021/01/08 08:24:17;;;;;;;8.00;7.10;;;-2.20;99.90;;;;;;5057524;28;20210;-75
2021/01/08 08:26:44;;;;;;;9.25;8.35;;;-1.60;99.90;;;;;;5055016;28;20222;-75
2021/01/08 08:29:12;;;;;;;8.77;7.88;;;-0.40;99.90;;;;;;5056656;28;20226;-74
2021/01/08 08:31:40;;;;;;;11.18;10.18;;;0.70;99.90;;;;;;5063306;28;20282;-74
2021/01/08 08:34:09;;;;;;;8.27;7.57;;;1.50;99.90;;;;;;5060755;28;20234;-75
2021/01/08 08:36:37;;;;;;;6.35;5.85;;;2.10;99.90;;;;;;5061167;28;20214;-74
2021/01/08 08:39:06;;;;;;;5.88;5.38;;;2.60;99.90;;;;;;5070082;28;20230;-73
2021/01/08 08:41:37;;;;;;;6.18;5.68;;;3.20;99.90;;;;;;5065547;27;20226;-75
2021/01/08 08:44:08;;;;;;;6.72;6.13;;;3.80;99.90;;;;;;5083670;27;20465;-75
2021/01/08 08:46:49;;;;;;;6.53;5.95;;;4.20;99.90;;;;;;5087955;27;20425;-74
2021/01/08 08:49:18;;;;;;;6.30;5.80;;;4.60;99.90;;;;;;5082346;27;20217;-75
2021/01/08 08:51:47;;;;;;;7.68;7.00;;;4.90;99.90;;;;;;5086420;27;20221;-74
2021/01/08 08:54:14;;;;;;;6.78;6.18;;;5.50;99.90;;;;;;5078649;28;20252;-75
2021/01/08 08:56:51;;;;;;;5.95;5.45;;;5.70;99.90;;;;;;5078296;28;20221;-76
2021/01/08 08:59:36;;;;;;;5.47;4.97;;;6.10;99.90;;;;;;5060616;28;20224;-75
2021/01/08 09:02:03;;;;;;;5.18;4.78;;;6.20;99.90;;;;;;5058952;28;20231;-74
2021/01/08 09:04:31;;;;;;;5.32;4.93;;;6.40;99.90;;;;;;5068524;28;20505;-74
2021/01/08 09:07:02;;;;;;;5.32;4.93;;;6.50;99.90;;;;;;5081783;28;20625;-75
2021/01/08 09:09:31;;;;;;;4.70;4.38;;;7.00;99.90;;;;;;5072715;28;20588;-74
2021/01/08 09:12:10;;;;;;;5.47;5.07;;;7.50;99.90;;;;;;5085883;28;20316;-74
2021/01/08 09:14:39;;;;;;;4.75;4.35;;;7.60;99.90;;;;;;5057035;28;20221;-75
2021/01/08 09:17:10;;;;;;;4.68;4.38;;;7.90;99.90;;;;;;5060506;28;20222;-77
2021/01/08 09:19:49;;;;;;;5.07;4.68;;;8.20;99.90;;;;;;5079958;28;20592;-75
2021/01/08 09:22:16;;;;;;;4.95;4.57;;;8.80;99.90;;;;;;5063269;28;20773;-74
2021/01/08 09:24:47;;;;;;;4.90;4.50;;;10.10;99.90;;;;;;5066690;27;20214;-74
2021/01/08 09:27:14;;;;;;;5.03;4.63;;;11.70;99.90;;;;;;5058450;28;20229;-72
2021/01/08 09:29:41;;;;;;;5.47;4.57;;;13.30;98.30;;;;;;5070754;28;20901;-74
2021/01/08 09:32:08;;;;;;;4.75;4.30;;;15.00;94.60;;;;;;5077414;28;20290;-74
2021/01/08 09:34:36;;;;;;;6.13;4.65;;;16.10;85.10;;;;;;5075379;28;20581;-74
2021/01/08 09:37:14;;;;;;;4.15;3.75;;;16.70;79.90;;;;;;5082710;28;20711;-73
2021/01/08 09:39:43;;;;;;;4.40;4.10;;;17.30;72.50;;;;;;5080044;28;20222;-73
2021/01/08 09:42:11;;;;;;;4.25;3.85;;;17.70;68.80;;;;;;5080940;28;20222;-73
2021/01/08 09:44:40;;;;;;;5.18;4.40;;;18.10;71.50;;;;;;5063952;28;20922;-75
2021/01/08 09:47:08;;;;;;;4.80;4.40;;;18.50;65.20;;;;;;5061693;28;20711;-73
2021/01/08 09:49:42;;;;;;;5.03;4.13;;;18.00;65.50;;;;;;5062650;28;20234;-75
2021/01/08 09:52:12;;;;;;;4.78;4.38;;;17.70;63.50;;;;;;5076718;28;20273;-74
2021/01/08 09:54:43;;;;;;;4.85;4.50;;;17.40;63.70;;;;;;5061206;28;21157;-74
2021/01/08 09:57:11;;;;;;;4.90;4.50;;;17.50;64.80;;;;;;5083359;27;20577;-75
2021/01/08 09:59:37;;;;;;;4.38;4.07;;;17.40;63.80;;;;;;5082808;27;20225;-75
2021/01/08 10:02:08;;;;;;;5.05;4.25;;;17.70;63.80;;;;;;5083742;27;20225;-75
2021/01/08 10:04:36;;;;;;;5.20;4.80;;;16.60;63.60;;;;;;5069183;27;20731;-75
2021/01/08 10:07:04;;;;;;;4.68;4.13;;;15.30;65.70;;;;;;5057908;28;20230;-75
2021/01/08 10:09:49;;;;;;;4.20;3.90;;;13.60;68.50;;;;;;5065494;28;20218;-77
2021/01/08 10:12:17;;;;;;;7.43;4.97;;;12.40;72.70;;;;;;5069527;28;20222;-74
2021/01/08 10:14:44;;;;;;;4.97;4.57;;;11.50;75.90;;;;;;5061593;28;20226;-74
2021/01/08 10:17:12;;;;;;;5.57;4.45;;;10.60;78.70;;;;;;5065027;28;20232;-75
2021/01/08 10:19:40;;;;;;;7.68;4.13;;;10.30;82.00;;;;;;5068121;28;20282;-74
2021/01/08 10:22:07;;;;;;;5.13;4.72;;;9.90;82.50;;;;;;5063604;28;20261;-75
2021/01/08 10:24:34;;;;;;;5.53;5.03;;;10.00;83.60;;;;;;5057122;28;20226;-74
2021/01/08 10:27:02;;;;;;;5.95;5.45;;;9.70;83.20;;;;;;5060124;28;20834;-75
2021/01/08 10:29:36;;;;;;;5.63;5.05;;;9.40;85.50;;;;;;5060734;28;20218;-75
2021/01/08 10:32:07;;;;;;;5.32;4.82;;;9.60;86.90;;;;;;5060523;28;20222;-74
2021/01/08 10:34:35;;;;;;;4.85;4.38;;;10.20;86.10;;;;;;5068935;28;20213;-74
2021/01/08 10:37:02;;;;;;;6.53;4.80;;;10.40;86.00;;;;;;5075074;28;20250;-74
2021/01/08 10:39:28;;;;;;;5.50;5.00;;;10.50;83.90;;;;;;5076351;28;20224;-75
2021/01/08 10:41:55;;;;;;;4.78;4.38;;;10.40;83.80;;;;;;5077331;27;20221;-75
2021/01/08 10:44:23;;;;;;;6.00;5.40;;;10.50;85.50;;;;;;5078366;28;20536;-75
2021/01/08 10:46:49;;;;;;;5.13;4.63;;;10.50;85.10;;;;;;5069985;28;20214;-75
2021/01/08 10:49:16;;;;;;;6.30;4.63;;;10.60;84.50;;;;;;5061818;28;20754;-75
2021/01/08 10:51:43;;;;;;;5.45;4.95;;;10.60;85.80;;;;;;5062823;28;20218;-75
2021/01/08 10:54:15;;;;;;;5.18;4.70;;;10.30;86.20;;;;;;5075453;28;20225;-74
2021/01/08 10:56:42;;;;;;;5.82;5.32;;;10.30;86.80;;;;;;5069404;28;20759;-74
2021/01/08 10:59:11;;;;;;;6.28;5.65;;;10.20;85.30;;;;;;5062839;28;20373;-74
2021/01/08 11:01:42;;;;;;;9.57;6.40;;;10.20;86.50;;;;;;5058213;28;20298;-74
2021/01/08 11:04:09;;;;;;;5.78;5.20;;;10.30;87.20;;;;;;5060555;28;20225;-74
2021/01/08 11:06:38;;;;;;;5.93;5.32;;;10.40;87.50;;;;;;5061242;28;20229;-74
2021/01/08 11:09:05;;;;;;;6.10;5.55;;;10.70;86.20;;;;;;5060276;28;22057;-74
2021/01/08 11:11:32;;;;;;;5.70;5.20;;;10.70;85.60;;;;;;5061392;28;20222;-75
2021/01/08 11:13:59;;;;;;;7.43;6.05;;;10.60;85.80;;;;;;5064715;28;20225;-75
2021/01/08 11:16:25;;;;;;;7.15;6.05;;;10.60;85.80;;;;;;5092303;27;20229;-75
2021/01/08 11:18:53;;;;;;;6.60;5.93;;;10.50;86.20;;;;;;5068369;28;20282;-75
2021/01/08 11:21:20;;;;;;;6.38;5.75;;;10.10;86.40;;;;;;5068107;28;20283;-75
2021/01/08 11:23:47;;;;;;;6.95;6.00;;;10.10;87.30;;;;;;5072453;28;20225;-75
2021/01/08 11:26:22;;;;;;;6.68;6.00;;;10.30;88.10;;;;;;5067829;28;20225;-73
2021/01/08 11:28:49;;;;;;;6.82;6.13;;;10.30;86.90;;;;;;5073090;28;20213;-73
2021/01/08 11:31:17;;;;;;;7.03;6.22;;;10.20;87.30;;;;;;5083354;28;20217;-75
2021/01/08 11:33:44;;;;;;;8.70;5.97;;;10.40;86.60;;;;;;5080588;28;20245;-75
2021/01/08 11:36:11;;;;;;;6.07;5.47;;;10.20;86.90;;;;;;5087434;28;20221;-76
2021/01/08 11:38:38;;;;;;;6.32;5.70;;;10.10;87.50;;;;;;5082627;28;20555;-73
2021/01/08 11:41:05;;;;;;;6.45;5.85;;;10.40;87.90;;;;;;5081533;28;20551;-74
2021/01/08 11:43:31;;;;;;;5.40;5.00;;;10.70;88.50;;;;;;5079764;28;20218;-74
2021/01/08 11:45:58;;;;;;;6.72;6.03;;;10.80;87.00;;;;;;5080045;27;20350;-75
2021/01/08 11:48:24;;;;;;;6.03;5.47;;;11.00;85.90;;;;;;5076726;28;20233;-74
2021/01/08 11:50:51;;;;;;;6.40;5.80;;;11.00;86.60;;;;;;5081541;28;20233;-74
2021/01/08 11:53:19;;;;;;;6.03;5.35;;;11.00;86.10;;;;;;5081725;28;20311;-75
2021/01/08 11:55:45;;;;;;;5.70;5.20;;;10.90;85.40;;;;;;5079542;28;20221;-75
2021/01/08 11:58:12;;;;;;;5.80;5.30;;;10.40;85.60;;;;;;5079382;27;20238;-75
2021/01/08 12:00:38;;;;;;;6.35;5.45;;;10.20;86.50;;;;;;5071604;28;20755;-75
2021/01/08 12:03:05;;;;;;;5.75;5.22;;;9.80;87.30;;;;;;5062832;28;20222;-75
2021/01/08 12:05:32;;;;;;;5.65;5.10;;;9.80;88.20;;;;;;5059330;28;20227;-74
2021/01/08 12:07:59;;;;;;;5.05;4.55;;;9.90;87.50;;;;;;5076150;28;20699;-75
2021/01/08 12:10:26;;;;;;;4.72;4.10;;;9.90;86.90;;;;;;5075986;27;20222;-75
2021/01/08 12:12:55;;;;;;;4.60;4.30;;;10.10;86.90;;;;;;5080682;28;20232;-74
2021/01/08 12:15:22;;;;;;;5.65;5.05;;;10.20;86.50;;;;;;5082147;27;20934;-75
2021/01/08 12:17:49;;;;;;;5.25;4.72;;;10.10;85.50;;;;;;5055408;28;20279;-73
2021/01/08 12:20:17;;;;;;;4.35;3.95;;;10.10;85.10;;;;;;5068409;28;20214;-74
2021/01/08 12:22:43;;;;;;;5.20;4.20;;;10.10;85.50;;;;;;5059519;28;20977;-75
2021/01/08 12:25:11;;;;;;;4.80;4.40;;;10.00;86.10;;;;;;5057965;28;20618;-75
2021/01/08 12:27:39;;;;;;;5.30;4.60;;;9.80;85.40;;;;;;5060631;28;20230;-75
2021/01/08 12:30:07;;;;;;;6.82;5.07;;;9.80;85.30;;;;;;5057875;28;20222;-75
2021/01/08 12:32:35;;;;;;;5.63;5.05;;;9.80;86.10;;;;;;5080441;27;20707;-75
2021/01/08 12:35:02;;;;;;;5.10;4.70;;;9.80;85.90;;;;;;5070193;28;20216;-75
2021/01/08 12:37:29;;;;;;;5.53;5.03;;;9.60;86.50;;;;;;5085084;28;20221;-74
2021/01/08 12:39:55;;;;;;;4.63;4.18;;;9.70;88.40;;;;;;5072054;28;20569;-74
2021/01/08 12:42:22;;;;;;;5.43;4.93;;;9.70;88.00;;;;;;5077170;27;20224;-74
2021/01/08 12:44:49;;;;;;;5.70;5.20;;;9.80;88.20;;;;;;5067512;28;20215;-75
2021/01/08 12:47:16;;;;;;;5.15;4.75;;;9.90;87.70;;;;;;5056444;28;20222;-74
2021/01/08 12:49:42;;;;;;;4.88;4.40;;;9.90;86.40;;;;;;5058814;28;20252;-73
2021/01/08 12:52:09;;;;;;;5.40;4.90;;;9.70;86.90;;;;;;5054484;28;20218;-76